createdAt,value
2023-03-20T00:01:20.167Z,99.90
2023-03-20T00:03:47.866Z,99.90
2023-03-20T00:06:18.904Z,99.90
2023-03-20T00:08:47.753Z,99.90
2023-03-20T00:11:37.162Z,1.00
2023-03-20T00:14:10.443Z,1.00
2023-03-20T00:16:40.644Z,1.00
2023-03-20T00:19:26.171Z,1.00
2023-03-20T00:21:55.120Z,1.00
2023-03-20T00:24:23.600Z,1.00
2023-03-20T00:26:51.820Z,1.00
2023-03-20T00:29:26.348Z,1.00
2023-03-20T00:31:55.104Z,1.00
2023-03-20T00:34:25.906Z,1.00
2023-03-20T00:36:54.006Z,1.00
2023-03-20T00:39:22.246Z,1.00
2023-03-20T00:41:56.154Z,1.00
2023-03-20T00:44:34.210Z,1.00
2023-03-20T00:47:13.509Z,1.00
2023-03-20T00:49:40.783Z,1.00
2023-03-20T00:52:09.151Z,1.00
2023-03-20T00:54:36.395Z,1.00
2023-03-20T00:57:12.657Z,1.00
2023-03-20T00:59:52.773Z,1.00
2023-03-20T01:02:21.974Z,1.00
2023-03-20T01:04:48.993Z,1.00
2023-03-20T01:07:16.469Z,1.00
2023-03-20T01:09:43.415Z,1.00
2023-03-20T01:12:14.926Z,1.00
2023-03-20T01:14:43.515Z,1.00
2023-03-20T01:17:18.854Z,1.00
2023-03-20T01:19:45.949Z,1.00
2023-03-20T01:22:14.336Z,1.00
2023-03-20T01:24:42.289Z,1.00
2023-03-20T01:27:15.645Z,1.00
2023-03-20T01:29:43.384Z,1.00
2023-03-20T01:32:16.974Z,1.00
2023-03-20T01:34:44.418Z,1.00
2023-03-20T01:37:34.869Z,1.00
2023-03-20T01:40:02.079Z,1.00
2023-03-20T01:42:29.499Z,1.00
2023-03-20T01:44:56.520Z,1.00
2023-03-20T01:47:25.005Z,1.00
2023-03-20T01:50:23.242Z,1.00
2023-03-20T01:52:59.619Z,1.00
2023-03-20T01:55:26.659Z,1.00
2023-03-20T01:57:56.874Z,1.00
2023-03-20T02:00:24.057Z,1.00
2023-03-20T02:02:51.427Z,1.00
2023-03-20T02:05:20.994Z,1.00
2023-03-20T02:07:56.183Z,1.00
2023-03-20T02:10:23.478Z,1.00
2023-03-20T02:12:51.884Z,1.00
2023-03-20T02:15:19.012Z,1.00
2023-03-20T02:17:46.231Z,1.00
2023-03-20T02:20:22.847Z,1.00
2023-03-20T02:22:55.813Z,1.00
2023-03-20T02:25:51.458Z,1.00
2023-03-20T02:28:39.270Z,1.00
2023-03-20T02:31:18.210Z,1.00
2023-03-20T02:33:59.665Z,1.00
2023-03-20T02:36:35.841Z,1.00
2023-03-20T02:39:21.654Z,1.00
2023-03-20T02:41:51.588Z,1.00
2023-03-20T02:44:38.130Z,1.00
2023-03-20T02:47:07.854Z,1.00
2023-03-20T02:50:27.381Z,1.00
2023-03-20T02:53:32.978Z,1.00
2023-03-20T02:56:06.318Z,1.00
2023-03-20T02:58:45.551Z,1.00
2023-03-20T03:01:26.521Z,1.00
2023-03-20T03:03:58.753Z,1.00
2023-03-20T03:06:32.750Z,1.00
2023-03-20T03:09:12.202Z,1.00
2023-03-20T03:11:44.754Z,1.00
2023-03-20T03:14:35.824Z,1.00
2023-03-20T03:17:06.647Z,1.00
2023-03-20T03:19:36.393Z,1.00
2023-03-20T03:22:04.862Z,1.00
2023-03-20T03:24:43.122Z,1.00
2023-03-20T03:27:17.468Z,1.00
2023-03-20T03:29:51.185Z,1.00
2023-03-20T03:32:54.921Z,1.00
2023-03-20T03:35:23.585Z,1.00
2023-03-20T03:38:04.117Z,1.00
2023-03-20T03:40:46.164Z,1.00
2023-03-20T03:43:23.988Z,1.00
2023-03-20T03:46:14.364Z,1.00
2023-03-20T03:48:55.510Z,1.00
2023-03-20T03:51:26.187Z,1.00
2023-03-20T03:53:59.641Z,1.00
2023-03-20T03:56:29.787Z,1.00
2023-03-20T03:59:08.735Z,1.00
2023-03-20T04:01:38.532Z,1.00
2023-03-20T04:04:08.878Z,1.00
2023-03-20T04:06:36.238Z,1.00
2023-03-20T04:09:03.150Z,1.00
2023-03-20T04:11:30.083Z,1.00
2023-03-20T04:13:56.977Z,1.00
2023-03-20T04:16:25.874Z,1.00
2023-03-20T04:18:53.255Z,1.00
2023-03-20T04:21:20.573Z,1.00
2023-03-20T04:23:47.543Z,1.00
2023-03-20T04:26:14.506Z,1.00
2023-03-20T04:28:41.434Z,1.00
2023-03-20T04:31:08.410Z,1.00
2023-03-20T04:33:36.042Z,1.00
2023-03-20T04:36:03.268Z,1.00
2023-03-20T04:38:30.432Z,1.00
2023-03-20T04:40:57.370Z,1.00
2023-03-20T04:43:24.345Z,1.00
2023-03-20T04:45:51.530Z,1.00
2023-03-20T04:48:18.755Z,1.00
2023-03-20T04:50:48.887Z,1.00
2023-03-20T04:53:16.398Z,1.00
2023-03-20T04:55:48.092Z,1.00
2023-03-20T04:58:15.573Z,1.00
2023-03-20T05:00:43.576Z,1.00
2023-03-20T05:03:11.170Z,1.00
2023-03-20T05:05:38.697Z,1.00
2023-03-20T05:08:06.597Z,1.00
2023-03-20T05:10:33.826Z,1.00
2023-03-20T05:13:00.724Z,1.00
2023-03-20T05:15:27.824Z,1.00
2023-03-20T05:17:55.048Z,1.00
2023-03-20T05:20:22.163Z,1.00
2023-03-20T05:22:51.128Z,1.00
2023-03-20T05:25:18.382Z,1.00
2023-03-20T05:27:46.409Z,1.00
2023-03-20T05:30:14.843Z,1.00
2023-03-20T05:32:43.798Z,1.00
2023-03-20T05:35:11.102Z,1.00
2023-03-20T05:37:39.590Z,1.00
2023-03-20T05:40:07.758Z,1.00
2023-03-20T05:42:35.128Z,1.00
2023-03-20T05:45:02.035Z,1.00
2023-03-20T05:47:28.915Z,1.00
2023-03-20T05:49:55.839Z,1.00
2023-03-20T05:52:23.841Z,1.00
2023-03-20T05:54:51.267Z,1.00
2023-03-20T05:57:18.201Z,1.00
2023-03-20T05:59:45.502Z,1.00
2023-03-20T06:02:12.759Z,1.00
2023-03-20T06:04:39.680Z,1.00
2023-03-20T06:07:06.806Z,1.00
2023-03-20T06:09:33.722Z,1.00
2023-03-20T06:12:00.725Z,1.00
2023-03-20T06:14:27.847Z,1.00
2023-03-20T06:16:55.151Z,1.00
2023-03-20T06:19:22.025Z,1.00
2023-03-20T06:21:50.517Z,1.00
2023-03-20T06:24:17.901Z,1.00
2023-03-20T06:26:44.978Z,1.00
2023-03-20T06:29:11.924Z,1.00
2023-03-20T06:31:38.816Z,1.00
2023-03-20T06:34:06.010Z,1.00
2023-03-20T06:36:32.995Z,1.00
2023-03-20T06:38:59.990Z,1.00
2023-03-20T06:41:34.196Z,1.00
2023-03-20T06:44:02.732Z,1.00
2023-03-20T06:46:29.750Z,1.00
2023-03-20T06:48:56.781Z,1.00
2023-03-20T06:51:23.775Z,1.00
2023-03-20T06:53:51.226Z,1.00
2023-03-20T06:56:18.468Z,1.00
2023-03-20T06:58:46.048Z,1.00
2023-03-20T07:01:17.314Z,1.00
2023-03-20T07:03:45.167Z,1.00
2023-03-20T07:06:13.694Z,1.00
2023-03-20T07:08:40.741Z,1.00
2023-03-20T07:11:11.152Z,1.00
2023-03-20T07:13:38.225Z,1.00
2023-03-20T07:16:05.585Z,1.00
2023-03-20T07:18:32.955Z,1.00
2023-03-20T07:21:03.179Z,1.00
2023-03-20T07:23:30.884Z,1.00
2023-03-20T07:25:58.890Z,1.00
2023-03-20T07:28:26.107Z,1.00
2023-03-20T07:30:53.027Z,1.00
2023-03-20T07:33:21.142Z,1.00
2023-03-20T07:35:55.125Z,99.90
2023-03-20T07:38:22.633Z,99.90
2023-03-20T07:40:50.214Z,99.90
2023-03-20T07:43:17.756Z,99.90
2023-03-20T07:45:44.973Z,99.90
2023-03-20T07:48:20.702Z,99.90
2023-03-20T07:50:47.586Z,99.90
2023-03-20T07:53:14.487Z,99.90
2023-03-20T07:55:41.590Z,99.90
2023-03-20T07:58:09.011Z,99.90
2023-03-20T08:00:36.440Z,99.90
2023-03-20T08:03:03.647Z,99.90
2023-03-20T08:05:30.824Z,99.90
2023-03-20T08:07:57.895Z,99.90
2023-03-20T08:10:28.512Z,99.90
2023-03-20T08:12:56.413Z,99.90
2023-03-20T08:15:23.899Z,99.90
2023-03-20T08:17:50.792Z,99.90
2023-03-20T08:20:17.880Z,99.90
2023-03-20T08:22:50.045Z,99.90
2023-03-20T08:25:17.319Z,99.90
2023-03-20T08:27:44.944Z,99.90
2023-03-20T08:30:14.080Z,99.90
2023-03-20T08:32:41.645Z,99.90
2023-03-20T08:35:19.044Z,99.90
2023-03-20T08:37:52.934Z,99.90
2023-03-20T08:40:20.584Z,99.90
2023-03-20T08:42:47.518Z,99.90
2023-03-20T08:45:14.599Z,99.90
2023-03-20T08:47:41.714Z,99.90
2023-03-20T08:50:09.905Z,99.90
2023-03-20T08:52:37.122Z,99.90
2023-03-20T08:55:04.848Z,99.90
2023-03-20T08:57:31.771Z,99.90
2023-03-20T08:59:58.730Z,99.90
2023-03-20T09:02:25.784Z,99.90
2023-03-20T09:04:52.791Z,99.90
2023-03-20T09:07:19.669Z,99.90
2023-03-20T09:09:49.573Z,99.90
2023-03-20T09:12:16.848Z,99.90
2023-03-20T09:14:46.011Z,99.90
2023-03-20T09:17:12.953Z,99.90
2023-03-20T09:19:42.636Z,99.90
2023-03-20T09:22:09.573Z,99.90
2023-03-20T09:24:37.337Z,99.90
2023-03-20T09:27:04.444Z,99.90
2023-03-20T09:29:31.452Z,99.90
2023-03-20T09:31:58.465Z,99.90
2023-03-20T09:34:25.491Z,99.90
2023-03-20T09:36:52.599Z,99.90
2023-03-20T09:39:19.472Z,99.90
2023-03-20T09:41:57.163Z,99.90
2023-03-20T09:44:36.822Z,99.90
2023-03-20T09:47:20.386Z,99.90
2023-03-20T09:50:26.866Z,99.90
2023-03-20T09:53:11.638Z,99.90
2023-03-20T09:55:45.015Z,99.90
2023-03-20T09:58:28.646Z,99.90
2023-03-20T10:00:58.927Z,99.90
2023-03-20T10:03:39.184Z,90.70
2023-03-20T10:06:18.037Z,64.70
2023-03-20T10:08:46.708Z,41.60
2023-03-20T10:11:41.693Z,7.20
2023-03-20T10:14:31.850Z,1.00
2023-03-20T10:17:16.885Z,1.00
2023-03-20T10:19:45.624Z,1.00
2023-03-20T10:22:27.198Z,1.00
2023-03-20T10:25:20.264Z,1.00
2023-03-20T10:27:57.412Z,1.00
2023-03-20T10:30:51.008Z,1.00
2023-03-20T10:33:44.139Z,1.00
2023-03-20T10:36:36.144Z,1.00
2023-03-20T10:39:40.694Z,1.00
2023-03-20T10:42:25.836Z,1.00
2023-03-20T10:45:06.361Z,1.00
2023-03-20T10:47:39.256Z,1.00
2023-03-20T10:50:11.985Z,1.00
2023-03-20T10:52:41.690Z,1.00
2023-03-20T10:55:15.831Z,1.00
2023-03-20T10:57:48.553Z,1.00
2023-03-20T11:00:24.621Z,1.00
2023-03-20T11:02:51.561Z,1.00
2023-03-20T11:05:26.884Z,1.00
2023-03-20T11:08:06.529Z,1.00
2023-03-20T11:10:36.823Z,1.00
2023-03-20T11:13:19.987Z,1.00
2023-03-20T11:15:47.337Z,1.00
2023-03-20T11:18:16.060Z,1.00
2023-03-20T11:20:52.993Z,1.00
2023-03-20T11:23:26.209Z,1.00
2023-03-20T11:25:58.634Z,1.00
2023-03-20T11:28:33.319Z,1.00
2023-03-20T11:31:26.675Z,1.00
2023-03-20T11:34:17.300Z,1.00
2023-03-20T11:37:10.442Z,1.00
2023-03-20T11:39:40.196Z,1.00
2023-03-20T11:42:26.781Z,1.00
2023-03-20T11:45:03.487Z,1.00
2023-03-20T11:47:34.775Z,1.00
2023-03-20T11:50:05.727Z,1.00
2023-03-20T11:52:37.691Z,1.00
2023-03-20T11:55:24.498Z,1.00
2023-03-20T11:57:51.753Z,1.00
2023-03-20T12:00:24.859Z,1.00
2023-03-20T12:02:52.056Z,1.00
2023-03-20T12:05:23.686Z,1.00
2023-03-20T12:07:52.343Z,1.00
2023-03-20T12:10:22.318Z,1.00
2023-03-20T12:12:58.876Z,1.00
2023-03-20T12:15:33.079Z,1.00
2023-03-20T12:18:05.824Z,1.00
2023-03-20T12:20:39.415Z,1.00
2023-03-20T12:23:09.450Z,1.00
2023-03-20T12:25:39.182Z,1.00
2023-03-20T12:28:20.664Z,1.00
2023-03-20T12:31:06.130Z,1.00
2023-03-20T12:34:25.476Z,1.00
2023-03-20T12:36:53.261Z,1.00
2023-03-20T12:39:38.764Z,1.00
2023-03-20T12:42:14.683Z,1.00
2023-03-20T12:45:12.323Z,1.00
2023-03-20T12:48:02.295Z,1.00
2023-03-20T12:50:42.955Z,1.00
2023-03-20T12:53:26.648Z,1.00
2023-03-20T12:56:31.989Z,1.00
2023-03-20T12:59:22.674Z,1.00
2023-03-20T13:02:04.042Z,1.00
2023-03-20T13:05:12.340Z,1.00
2023-03-20T13:07:57.700Z,1.00
2023-03-20T13:10:54.461Z,1.00
2023-03-20T13:13:28.321Z,1.00
2023-03-20T13:16:25.894Z,1.00
2023-03-20T13:19:14.411Z,1.00
2023-03-20T13:21:56.867Z,1.00
2023-03-20T13:24:35.750Z,1.00
2023-03-20T13:27:14.404Z,1.00
2023-03-20T13:30:09.651Z,1.00
2023-03-20T13:32:42.509Z,1.00
2023-03-20T13:35:24.119Z,1.00
2023-03-20T13:38:09.781Z,1.00
2023-03-20T13:40:41.691Z,1.00
2023-03-20T13:43:21.377Z,1.00
2023-03-20T13:45:49.867Z,1.00
2023-03-20T13:48:36.629Z,1.00
2023-03-20T13:51:15.540Z,1.00
2023-03-20T13:54:16.875Z,1.00
2023-03-20T13:57:02.837Z,1.00
2023-03-20T13:59:51.102Z,1.00
2023-03-20T14:02:50.572Z,1.00
2023-03-20T14:05:23.304Z,1.00
2023-03-20T14:07:56.342Z,1.00
2023-03-20T14:10:23.402Z,1.00
2023-03-20T14:12:55.836Z,1.00
2023-03-20T14:15:31.577Z,1.00
2023-03-20T14:18:03.296Z,1.00
2023-03-20T14:20:34.843Z,1.00
2023-03-20T14:23:02.376Z,1.00
2023-03-20T14:25:40.403Z,2.70
2023-03-20T14:28:10.304Z,1.40
2023-03-20T14:30:39.409Z,1.00
2023-03-20T14:33:16.005Z,1.00
2023-03-20T14:35:51.513Z,1.00
2023-03-20T14:38:27.662Z,1.00
2023-03-20T14:41:02.386Z,1.00
2023-03-20T14:44:00.869Z,1.00
2023-03-20T14:46:43.154Z,1.00
2023-03-20T14:49:48.146Z,1.00
2023-03-20T14:52:15.381Z,1.00
2023-03-20T14:54:42.328Z,1.00
2023-03-20T14:57:27.697Z,1.00
2023-03-20T14:59:55.311Z,1.00
2023-03-20T15:02:28.693Z,1.00
2023-03-20T15:04:56.451Z,1.00
2023-03-20T15:07:25.325Z,1.00
2023-03-20T15:09:55.697Z,1.00
2023-03-20T15:12:31.502Z,1.00
2023-03-20T15:15:01.434Z,1.00
2023-03-20T15:17:37.572Z,1.00
2023-03-20T15:20:31.932Z,1.00
2023-03-20T15:23:00.991Z,1.00
2023-03-20T15:25:39.618Z,1.00
2023-03-20T15:28:08.470Z,1.00
2023-03-20T15:30:39.415Z,1.00
2023-03-20T15:33:08.594Z,1.00
2023-03-20T15:35:35.874Z,2.40
2023-03-20T15:38:07.679Z,6.50
2023-03-20T15:40:50.110Z,8.20
2023-03-20T15:43:26.797Z,8.50
2023-03-20T15:46:14.151Z,18.90
2023-03-20T15:48:46.974Z,36.60
2023-03-20T15:51:14.304Z,53.30
2023-03-20T15:53:45.269Z,68.20
2023-03-20T15:56:18.576Z,91.90
2023-03-20T15:58:49.535Z,99.90
2023-03-20T16:01:19.960Z,99.90
2023-03-20T16:03:48.297Z,99.90
2023-03-20T16:06:22.312Z,99.90
2023-03-20T16:09:06.760Z,99.90
2023-03-20T16:11:39.444Z,99.90
2023-03-20T16:14:10.969Z,99.90
2023-03-20T16:16:38.456Z,99.90
2023-03-20T16:19:08.545Z,99.90
2023-03-20T16:21:39.533Z,99.90
2023-03-20T16:24:15.892Z,99.90
2023-03-20T16:26:45.920Z,99.90
2023-03-20T16:29:14.877Z,99.90
2023-03-20T16:31:53.159Z,99.90
2023-03-20T16:34:24.627Z,99.90
2023-03-20T16:36:58.053Z,99.90
2023-03-20T16:39:28.174Z,99.90
2023-03-20T16:42:29.071Z,99.90
2023-03-20T16:44:57.996Z,99.90
2023-03-20T16:47:38.491Z,99.90
2023-03-20T16:50:17.732Z,99.90
2023-03-20T16:52:56.102Z,99.90
2023-03-20T16:55:27.249Z,1.00
2023-03-20T16:57:58.138Z,1.00
2023-03-20T17:00:47.801Z,1.00
2023-03-20T17:03:20.290Z,1.00
2023-03-20T17:05:53.563Z,1.00
2023-03-20T17:08:29.634Z,1.00
2023-03-20T17:10:59.560Z,1.00
2023-03-20T17:13:26.486Z,1.00
2023-03-20T17:15:54.378Z,1.00
2023-03-20T17:18:21.238Z,1.00
2023-03-20T17:20:48.115Z,1.00
2023-03-20T17:23:19.446Z,1.00
2023-03-20T17:25:47.319Z,1.00
2023-03-20T17:28:24.482Z,1.00
2023-03-20T17:30:52.054Z,1.00
2023-03-20T17:33:21.203Z,16.40
2023-03-20T17:35:48.356Z,27.60
2023-03-20T17:38:22.816Z,60.00
2023-03-20T17:40:51.194Z,91.70
2023-03-20T17:43:19.983Z,99.90
2023-03-20T17:45:47.832Z,99.90
2023-03-20T17:48:18.005Z,99.90
2023-03-20T17:50:46.677Z,99.90
2023-03-20T17:53:25.055Z,99.90
2023-03-20T17:55:52.924Z,99.90
2023-03-20T17:58:22.769Z,99.90
2023-03-20T18:00:51.360Z,99.90
2023-03-20T18:03:18.982Z,99.90
2023-03-20T18:05:48.559Z,99.90
2023-03-20T18:08:21.397Z,99.90
2023-03-20T18:10:50.026Z,99.90
2023-03-20T18:13:21.140Z,99.90
2023-03-20T18:15:49.845Z,99.90
2023-03-20T18:18:17.029Z,99.90
2023-03-20T18:20:45.648Z,99.90
2023-03-20T18:23:13.212Z,99.90
2023-03-20T18:25:40.530Z,1.00
2023-03-20T18:28:12.467Z,1.00
2023-03-20T18:30:41.494Z,1.00
2023-03-20T18:33:08.855Z,1.00
2023-03-20T18:35:36.599Z,1.00
2023-03-20T18:38:04.189Z,1.00
2023-03-20T18:40:36.674Z,1.00
2023-03-20T18:43:04.315Z,1.00
2023-03-20T18:45:31.921Z,42.90
2023-03-20T18:47:59.706Z,99.90
2023-03-20T18:50:31.200Z,99.90
2023-03-20T18:52:59.572Z,99.90
2023-03-20T18:55:28.766Z,99.90
2023-03-20T18:57:56.321Z,99.90
2023-03-20T19:00:25.637Z,99.90
2023-03-20T19:02:55.679Z,99.90
2023-03-20T19:05:25.669Z,1.00
2023-03-20T19:07:53.918Z,1.00
2023-03-20T19:10:43.862Z,1.00
2023-03-20T19:13:15.150Z,1.00
2023-03-20T19:15:42.826Z,1.00
2023-03-20T19:18:21.741Z,1.00
2023-03-20T19:20:53.527Z,1.00
2023-03-20T19:23:21.769Z,13.50
2023-03-20T19:25:51.615Z,50.60
2023-03-20T19:28:23.164Z,93.90
2023-03-20T19:30:56.185Z,99.90
2023-03-20T19:33:23.947Z,99.90
2023-03-20T19:36:06.929Z,99.90
2023-03-20T19:38:34.623Z,99.90
2023-03-20T19:41:03.811Z,99.90
2023-03-20T19:43:32.368Z,1.00
2023-03-20T19:45:59.605Z,1.00
2023-03-20T19:48:46.505Z,1.00
2023-03-20T19:51:22.882Z,1.00
2023-03-20T19:53:50.606Z,1.00
2023-03-20T19:56:19.288Z,1.00
2023-03-20T19:58:46.718Z,58.50
2023-03-20T20:01:19.441Z,99.90
2023-03-20T20:03:47.447Z,99.90
2023-03-20T20:06:14.710Z,99.90
2023-03-20T20:08:48.297Z,1.00
2023-03-20T20:11:17.532Z,1.00
2023-03-20T20:14:07.100Z,1.00
2023-03-20T20:16:34.855Z,1.00
2023-03-20T20:19:02.541Z,1.00
2023-03-20T20:24:16.460Z,98.90
2023-03-20T20:26:53.308Z,99.90
2023-03-20T20:29:22.104Z,99.90
2023-03-20T20:31:49.565Z,99.90
2023-03-20T20:39:50.510Z,99.90
2023-03-20T20:42:17.661Z,99.90
2023-03-20T20:44:44.887Z,99.90
2023-03-20T20:47:12.518Z,99.90
2023-03-20T20:49:39.650Z,99.90
2023-03-20T20:52:07.546Z,99.90
2023-03-20T20:54:34.954Z,99.90
2023-03-20T20:57:02.531Z,99.90
2023-03-20T20:59:29.533Z,99.90
2023-03-20T21:01:56.609Z,99.90
2023-03-20T21:04:24.026Z,99.90
2023-03-20T21:07:08.746Z,99.90
2023-03-20T21:09:36.812Z,99.90
2023-03-20T21:12:04.466Z,99.90
2023-03-20T21:14:31.697Z,99.90
2023-03-20T21:17:01.627Z,99.90
2023-03-20T21:19:37.244Z,99.90
2023-03-20T21:22:05.625Z,75.80
2023-03-20T21:24:34.690Z,96.00
2023-03-20T21:27:05.263Z,32.80
2023-03-20T21:29:32.216Z,1.00
2023-03-20T21:31:59.162Z,1.00
2023-03-20T21:34:26.496Z,1.00
2023-03-20T21:36:53.993Z,1.00
2023-03-20T21:39:21.204Z,1.00
2023-03-20T21:41:48.147Z,1.00
2023-03-20T21:44:24.589Z,1.00
2023-03-20T21:48:04.238Z,1.00
2023-03-20T21:51:20.678Z,1.00
2023-03-20T21:53:14.735Z,1.00
2023-03-20T22:01:46.085Z,1.00
2023-03-20T22:12:53.589Z,32.70
2023-03-20T22:15:34.078Z,59.40
2023-03-20T22:21:21.863Z,1.00
2023-03-20T22:32:27.824Z,1.00
2023-03-20T22:43:05.871Z,1.00
2023-03-20T22:45:42.588Z,1.00
2023-03-20T22:48:12.304Z,1.00
2023-03-20T22:50:40.269Z,1.00
2023-03-20T22:53:07.625Z,1.00
2023-03-20T22:55:34.585Z,99.90
2023-03-20T22:58:07.442Z,1.00
2023-03-20T23:00:36.702Z,1.00
2023-03-20T23:03:37.702Z,1.00
2023-03-20T23:05:52.868Z,1.00
2023-03-20T23:08:20.320Z,1.00
2023-03-20T23:10:50.124Z,99.90
2023-03-20T23:13:20.393Z,99.90
2023-03-20T23:15:47.804Z,99.90
2023-03-20T23:18:15.472Z,99.90
2023-03-20T23:20:43.258Z,99.90
2023-03-20T23:23:10.304Z,99.90
2023-03-20T23:25:39.720Z,99.90
2023-03-20T23:28:08.660Z,99.90
2023-03-20T23:31:07.629Z,99.90
2023-03-20T23:33:23.472Z,99.90
2023-03-20T23:36:01.102Z,99.90
2023-03-20T23:38:36.181Z,99.90
2023-03-20T23:41:03.137Z,99.90
2023-03-20T23:43:30.015Z,99.90
2023-03-20T23:45:56.891Z,99.90
2023-03-20T23:48:24.251Z,99.90
2023-03-20T23:50:53.573Z,99.90
2023-03-20T23:53:21.474Z,99.90
2023-03-20T23:55:51.802Z,99.90
2023-03-20T23:58:19.517Z,99.90
